sensor_id;sensor_type;location;lat;lon;timestamp;P1;durP1;ratioP1;P2;durP2;ratioP2
55692;SDS011;41590;53.366;5.212;2023-03-14T00:00:34;53.95;;;7.82;;
55692;SDS011;41590;53.366;5.212;2023-03-14T00:06:22;45.65;;;6.75;;
55692;SDS011;41590;53.366;5.212;2023-03-14T00:09:01;55.65;;;6.72;;
55692;SDS011;41590;53.366;5.212;2023-03-14T00:11:31;48.63;;;6.70;;
55692;SDS011;41590;53.366;5.212;2023-03-14T00:13:59;53.88;;;8.27;;
55692;SDS011;41590;53.366;5.212;2023-03-14T00:16:46;53.10;;;7.07;;
55692;SDS011;41590;53.366;5.212;2023-03-14T00:19:32;44.47;;;6.53;;
55692;SDS011;41590;53.366;5.212;2023-03-14T00:24:50;57.03;;;6.70;;
55692;SDS011;41590;53.366;5.212;2023-03-14T00:27:41;58.28;;;7.70;;
55692;SDS011;41590;53.366;5.212;2023-03-14T00:30:44;48.50;;;7.40;;
55692;SDS011;41590;53.366;5.212;2023-03-14T00:33:15;49.60;;;7.03;;
55692;SDS011;41590;53.366;5.212;2023-03-14T00:35:57;57.92;;;7.40;;
55692;SDS011;41590;53.366;5.212;2023-03-14T00:41:09;52.35;;;7.72;;
55692;SDS011;41590;53.366;5.212;2023-03-14T00:43:47;46.35;;;6.60;;
55692;SDS011;41590;53.366;5.212;2023-03-14T00:46:15;50.90;;;6.45;;
55692;SDS011;41590;53.366;5.212;2023-03-14T00:48:52;62.72;;;7.68;;
55692;SDS011;41590;53.366;5.212;2023-03-14T00:51:33;49.17;;;7.28;;
55692;SDS011;41590;53.366;5.212;2023-03-14T00:53:59;57.00;;;7.68;;
55692;SDS011;41590;53.366;5.212;2023-03-14T00:56:27;37.15;;;4.82;;
55692;SDS011;41590;53.366;5.212;2023-03-14T01:01:53;44.70;;;6.40;;
55692;SDS011;41590;53.366;5.212;2023-03-14T01:06:48;44.60;;;6.45;;
55692;SDS011;41590;53.366;5.212;2023-03-14T01:11:47;41.15;;;6.60;;
55692;SDS011;41590;53.366;5.212;2023-03-14T01:14:14;45.45;;;6.85;;
55692;SDS011;41590;53.366;5.212;2023-03-14T01:16:43;46.03;;;6.95;;
55692;SDS011;41590;53.366;5.212;2023-03-14T01:19:13;42.20;;;6.40;;
55692;SDS011;41590;53.366;5.212;2023-03-14T01:21:47;46.00;;;6.80;;
55692;SDS011;41590;53.366;5.212;2023-03-14T01:24:13;50.08;;;7.43;;
55692;SDS011;41590;53.366;5.212;2023-03-14T01:26:48;45.80;;;6.00;;
55692;SDS011;41590;53.366;5.212;2023-03-14T01:29:15;44.83;;;6.82;;
55692;SDS011;41590;53.366;5.212;2023-03-14T01:31:46;51.40;;;8.27;;
55692;SDS011;41590;53.366;5.212;2023-03-14T01:40:27;49.40;;;7.57;;
55692;SDS011;41590;53.366;5.212;2023-03-14T01:42:58;44.92;;;6.65;;
55692;SDS011;41590;53.366;5.212;2023-03-14T01:48:39;53.17;;;7.53;;
55692;SDS011;41590;53.366;5.212;2023-03-14T01:51:21;51.90;;;7.05;;
55692;SDS011;41590;53.366;5.212;2023-03-14T01:53:50;57.15;;;7.47;;
55692;SDS011;41590;53.366;5.212;2023-03-14T01:56:22;51.75;;;6.72;;
55692;SDS011;41590;53.366;5.212;2023-03-14T02:01:21;57.97;;;7.88;;
55692;SDS011;41590;53.366;5.212;2023-03-14T02:11:53;56.08;;;7.68;;
55692;SDS011;41590;53.366;5.212;2023-03-14T02:17:11;52.38;;;7.20;;
55692;SDS011;41590;53.366;5.212;2023-03-14T02:22:34;59.85;;;7.72;;
55692;SDS011;41590;53.366;5.212;2023-03-14T02:27:52;58.67;;;8.45;;
55692;SDS011;41590;53.366;5.212;2023-03-14T02:30:23;54.47;;;6.95;;
55692;SDS011;41590;53.366;5.212;2023-03-14T02:32:54;58.97;;;7.97;;
55692;SDS011;41590;53.366;5.212;2023-03-14T02:41:07;64.63;;;9.80;;
55692;SDS011;41590;53.366;5.212;2023-03-14T02:46:21;57.13;;;7.35;;
55692;SDS011;41590;53.366;5.212;2023-03-14T02:49:02;45.50;;;6.72;;
55692;SDS011;41590;53.366;5.212;2023-03-14T02:51:39;47.63;;;7.30;;
55692;SDS011;41590;53.366;5.212;2023-03-14T02:54:07;54.03;;;6.95;;
55692;SDS011;41590;53.366;5.212;2023-03-14T02:56:37;59.22;;;8.30;;
55692;SDS011;41590;53.366;5.212;2023-03-14T02:59:15;55.05;;;7.50;;
55692;SDS011;41590;53.366;5.212;2023-03-14T03:01:45;55.90;;;7.65;;
55692;SDS011;41590;53.366;5.212;2023-03-14T03:04:12;62.83;;;7.75;;
55692;SDS011;41590;53.366;5.212;2023-03-14T03:06:41;55.67;;;6.55;;
55692;SDS011;41590;53.366;5.212;2023-03-14T03:11:58;62.70;;;7.50;;
55692;SDS011;41590;53.366;5.212;2023-03-14T03:14:24;65.20;;;8.18;;
55692;SDS011;41590;53.366;5.212;2023-03-14T03:16:50;60.33;;;8.82;;
55692;SDS011;41590;53.366;5.212;2023-03-14T03:21:53;50.50;;;7.38;;
55692;SDS011;41590;53.366;5.212;2023-03-14T03:24:18;71.18;;;9.63;;
55692;SDS011;41590;53.366;5.212;2023-03-14T03:26:51;60.38;;;8.02;;
55692;SDS011;41590;53.366;5.212;2023-03-14T03:29:36;75.65;;;9.02;;
55692;SDS011;41590;53.366;5.212;2023-03-14T03:32:10;74.57;;;9.80;;
55692;SDS011;41590;53.366;5.212;2023-03-14T03:37:31;67.47;;;8.57;;
55692;SDS011;41590;53.366;5.212;2023-03-14T03:39:58;69.18;;;8.05;;
55692;SDS011;41590;53.366;5.212;2023-03-14T03:42:25;78.13;;;8.20;;
55692;SDS011;41590;53.366;5.212;2023-03-14T03:47:30;60.70;;;6.30;;
55692;SDS011;41590;53.366;5.212;2023-03-14T03:49:56;53.53;;;6.95;;
55692;SDS011;41590;53.366;5.212;2023-03-14T03:52:25;54.25;;;5.63;;
55692;SDS011;41590;53.366;5.212;2023-03-14T03:54:52;39.33;;;5.65;;
55692;SDS011;41590;53.366;5.212;2023-03-14T04:01:06;44.88;;;6.40;;
55692;SDS011;41590;53.366;5.212;2023-03-14T04:03:37;34.60;;;4.38;;
55692;SDS011;41590;53.366;5.212;2023-03-14T04:13:27;32.40;;;3.65;;
55692;SDS011;41590;53.366;5.212;2023-03-14T04:19:00;41.22;;;4.32;;
55692;SDS011;41590;53.366;5.212;2023-03-14T04:32:21;45.72;;;5.25;;
55692;SDS011;41590;53.366;5.212;2023-03-14T04:47:10;21.75;;;2.10;;
55692;SDS011;41590;53.366;5.212;2023-03-14T05:23:37;15.70;;;1.70;;
55692;SDS011;41590;53.366;5.212;2023-03-14T05:32:15;19.92;;;2.00;;
55692;SDS011;41590;53.366;5.212;2023-03-14T05:38:15;19.33;;;2.15;;
55692;SDS011;41590;53.366;5.212;2023-03-14T05:43:51;14.68;;;1.25;;
55692;SDS011;41590;53.366;5.212;2023-03-14T05:46:31;21.83;;;1.75;;
55692;SDS011;41590;53.366;5.212;2023-03-14T05:49:08;24.15;;;1.80;;
55692;SDS011;41590;53.366;5.212;2023-03-14T05:51:41;16.15;;;1.33;;
55692;SDS011;41590;53.366;5.212;2023-03-14T05:54:08;14.18;;;1.35;;
55692;SDS011;41590;53.366;5.212;2023-03-14T05:59:15;14.23;;;1.52;;
55692;SDS011;41590;53.366;5.212;2023-03-14T06:01:49;17.48;;;2.10;;
55692;SDS011;41590;53.366;5.212;2023-03-14T06:04:15;8.90;;;1.20;;
55692;SDS011;41590;53.366;5.212;2023-03-14T06:06:48;20.25;;;2.22;;
55692;SDS011;41590;53.366;5.212;2023-03-14T06:11:46;11.40;;;0.98;;
55692;SDS011;41590;53.366;5.212;2023-03-14T06:14:17;11.10;;;1.52;;
55692;SDS011;41590;53.366;5.212;2023-03-14T06:19:32;14.90;;;2.00;;
55692;SDS011;41590;53.366;5.212;2023-03-14T06:21:59;10.45;;;1.70;;
55692;SDS011;41590;53.366;5.212;2023-03-14T06:24:33;17.90;;;1.90;;
55692;SDS011;41590;53.366;5.212;2023-03-14T06:27:03;28.27;;;2.45;;
55692;SDS011;41590;53.366;5.212;2023-03-14T06:29:30;11.85;;;1.92;;
55692;SDS011;41590;53.366;5.212;2023-03-14T06:32:01;24.58;;;2.70;;
55692;SDS011;41590;53.366;5.212;2023-03-14T06:34:37;21.85;;;2.70;;
55692;SDS011;41590;53.366;5.212;2023-03-14T06:37:04;25.20;;;2.80;;
55692;SDS011;41590;53.366;5.212;2023-03-14T06:39:43;27.75;;;3.63;;
55692;SDS011;41590;53.366;5.212;2023-03-14T07:01:57;26.00;;;3.50;;
55692;SDS011;41590;53.366;5.212;2023-03-14T07:04:30;23.70;;;3.15;;
55692;SDS011;41590;53.366;5.212;2023-03-14T07:06:55;35.25;;;3.78;;
55692;SDS011;41590;53.366;5.212;2023-03-14T07:09:23;28.10;;;3.97;;
55692;SDS011;41590;53.366;5.212;2023-03-14T07:11:50;21.40;;;2.90;;
55692;SDS011;41590;53.366;5.212;2023-03-14T07:14:22;19.35;;;3.13;;
55692;SDS011;41590;53.366;5.212;2023-03-14T07:16:50;24.58;;;3.65;;
55692;SDS011;41590;53.366;5.212;2023-03-14T07:19:16;35.10;;;5.25;;
55692;SDS011;41590;53.366;5.212;2023-03-14T07:21:48;28.83;;;3.20;;
55692;SDS011;41590;53.366;5.212;2023-03-14T07:24:34;32.28;;;3.42;;
55692;SDS011;41590;53.366;5.212;2023-03-14T07:27:22;33.53;;;4.68;;
55692;SDS011;41590;53.366;5.212;2023-03-14T07:29:53;28.40;;;3.25;;
55692;SDS011;41590;53.366;5.212;2023-03-14T07:32:20;22.05;;;2.85;;
55692;SDS011;41590;53.366;5.212;2023-03-14T07:34:46;21.52;;;2.70;;
55692;SDS011;41590;53.366;5.212;2023-03-14T07:37:20;23.48;;;3.22;;
55692;SDS011;41590;53.366;5.212;2023-03-14T07:39:48;25.17;;;3.30;;
55692;SDS011;41590;53.366;5.212;2023-03-14T07:42:33;24.25;;;3.65;;
55692;SDS011;41590;53.366;5.212;2023-03-14T07:45:11;25.80;;;4.10;;
55692;SDS011;41590;53.366;5.212;2023-03-14T07:47:38;37.65;;;4.55;;
55692;SDS011;41590;53.366;5.212;2023-03-14T07:50:04;31.17;;;3.58;;
55692;SDS011;41590;53.366;5.212;2023-03-14T07:52:35;30.88;;;3.40;;
55692;SDS011;41590;53.366;5.212;2023-03-14T07:55:02;42.90;;;4.70;;
55692;SDS011;41590;53.366;5.212;2023-03-14T07:57:29;34.67;;;3.45;;
55692;SDS011;41590;53.366;5.212;2023-03-14T07:59:55;30.60;;;4.65;;
55692;SDS011;41590;53.366;5.212;2023-03-14T08:02:25;28.17;;;3.92;;
55692;SDS011;41590;53.366;5.212;2023-03-14T08:04:52;24.35;;;3.50;;
55692;SDS011;41590;53.366;5.212;2023-03-14T08:07:17;30.92;;;3.92;;
55692;SDS011;41590;53.366;5.212;2023-03-14T08:09:45;27.20;;;3.88;;
55692;SDS011;41590;53.366;5.212;2023-03-14T08:12:15;24.50;;;3.20;;
55692;SDS011;41590;53.366;5.212;2023-03-14T08:17:13;31.92;;;3.72;;
55692;SDS011;41590;53.366;5.212;2023-03-14T08:19:40;28.65;;;3.67;;
55692;SDS011;41590;53.366;5.212;2023-03-14T08:22:11;31.08;;;3.95;;
55692;SDS011;41590;53.366;5.212;2023-03-14T08:24:38;21.63;;;3.75;;
55692;SDS011;41590;53.366;5.212;2023-03-14T08:27:06;34.33;;;4.55;;
55692;SDS011;41590;53.366;5.212;2023-03-14T08:29:32;30.30;;;3.95;;
55692;SDS011;41590;53.366;5.212;2023-03-14T08:31:58;22.83;;;3.40;;
55692;SDS011;41590;53.366;5.212;2023-03-14T08:34:27;32.50;;;3.75;;
55692;SDS011;41590;53.366;5.212;2023-03-14T08:36:52;24.10;;;3.95;;
55692;SDS011;41590;53.366;5.212;2023-03-14T08:39:21;21.98;;;2.90;;
55692;SDS011;41590;53.366;5.212;2023-03-14T08:41:49;24.75;;;3.05;;
55692;SDS011;41590;53.366;5.212;2023-03-14T08:44:17;27.52;;;4.05;;
55692;SDS011;41590;53.366;5.212;2023-03-14T08:46:42;29.88;;;3.42;;
55692;SDS011;41590;53.366;5.212;2023-03-14T08:49:09;30.70;;;4.00;;
55692;SDS011;41590;53.366;5.212;2023-03-14T08:51:40;25.67;;;3.47;;
55692;SDS011;41590;53.366;5.212;2023-03-14T08:54:09;27.25;;;3.83;;
55692;SDS011;41590;53.366;5.212;2023-03-14T08:56:36;28.33;;;3.65;;
55692;SDS011;41590;53.366;5.212;2023-03-14T09:01:37;30.00;;;3.33;;
55692;SDS011;41590;53.366;5.212;2023-03-14T09:04:09;19.80;;;3.35;;
55692;SDS011;41590;53.366;5.212;2023-03-14T09:06:38;23.53;;;3.07;;
55692;SDS011;41590;53.366;5.212;2023-03-14T09:09:04;14.57;;;2.28;;
55692;SDS011;41590;53.366;5.212;2023-03-14T09:11:30;24.58;;;3.20;;
55692;SDS011;41590;53.366;5.212;2023-03-14T09:13:58;28.35;;;4.25;;
55692;SDS011;41590;53.366;5.212;2023-03-14T09:16:26;19.23;;;2.45;;
55692;SDS011;41590;53.366;5.212;2023-03-14T09:18:54;24.75;;;3.40;;
55692;SDS011;41590;53.366;5.212;2023-03-14T09:21:22;26.92;;;3.15;;
55692;SDS011;41590;53.366;5.212;2023-03-14T09:23:49;21.17;;;2.85;;
55692;SDS011;41590;53.366;5.212;2023-03-14T09:26:15;23.10;;;2.80;;
55692;SDS011;41590;53.366;5.212;2023-03-14T09:28:42;21.98;;;2.53;;
55692;SDS011;41590;53.366;5.212;2023-03-14T09:31:09;20.67;;;3.13;;
55692;SDS011;41590;53.366;5.212;2023-03-14T09:33:36;13.82;;;2.22;;
55692;SDS011;41590;53.366;5.212;2023-03-14T09:36:05;18.75;;;2.72;;
55692;SDS011;41590;53.366;5.212;2023-03-14T09:38:33;12.43;;;2.08;;
55692;SDS011;41590;53.366;5.212;2023-03-14T09:41:02;18.27;;;2.38;;
55692;SDS011;41590;53.366;5.212;2023-03-14T09:43:36;14.45;;;2.30;;
55692;SDS011;41590;53.366;5.212;2023-03-14T09:46:03;16.08;;;2.90;;
55692;SDS011;41590;53.366;5.212;2023-03-14T09:48:30;14.15;;;1.88;;
55692;SDS011;41590;53.366;5.212;2023-03-14T09:50:59;14.95;;;2.10;;
55692;SDS011;41590;53.366;5.212;2023-03-14T09:53:48;11.80;;;2.10;;
55692;SDS011;41590;53.366;5.212;2023-03-14T09:58:59;12.52;;;2.20;;
55692;SDS011;41590;53.366;5.212;2023-03-14T10:04:00;15.95;;;2.50;;
55692;SDS011;41590;53.366;5.212;2023-03-14T10:06:33;13.55;;;2.28;;
55692;SDS011;41590;53.366;5.212;2023-03-14T10:09:02;12.27;;;1.83;;
55692;SDS011;41590;53.366;5.212;2023-03-14T10:11:33;19.00;;;2.67;;
55692;SDS011;41590;53.366;5.212;2023-03-14T10:14:11;16.58;;;2.33;;
55692;SDS011;41590;53.366;5.212;2023-03-14T10:16:42;10.85;;;1.83;;
55692;SDS011;41590;53.366;5.212;2023-03-14T10:19:13;12.80;;;1.95;;
55692;SDS011;41590;53.366;5.212;2023-03-14T10:21:42;11.32;;;1.73;;
55692;SDS011;41590;53.366;5.212;2023-03-14T10:27:22;9.40;;;1.75;;
55692;SDS011;41590;53.366;5.212;2023-03-14T10:30:01;6.88;;;1.15;;
55692;SDS011;41590;53.366;5.212;2023-03-14T10:32:36;10.10;;;1.88;;
55692;SDS011;41590;53.366;5.212;2023-03-14T10:35:05;12.90;;;2.28;;
55692;SDS011;41590;53.366;5.212;2023-03-14T10:37:47;9.45;;;2.72;;
55692;SDS011;41590;53.366;5.212;2023-03-14T10:40:29;13.48;;;1.92;;
55692;SDS011;41590;53.366;5.212;2023-03-14T10:43:04;14.30;;;2.53;;
55692;SDS011;41590;53.366;5.212;2023-03-14T10:45:41;9.75;;;1.60;;
55692;SDS011;41590;53.366;5.212;2023-03-14T10:53:49;11.43;;;1.85;;
55692;SDS011;41590;53.366;5.212;2023-03-14T10:56:22;11.90;;;2.05;;
55692;SDS011;41590;53.366;5.212;2023-03-14T10:59:01;23.70;;;2.22;;
55692;SDS011;41590;53.366;5.212;2023-03-14T11:07:41;16.00;;;1.90;;
55692;SDS011;41590;53.366;5.212;2023-03-14T11:22:47;15.93;;;2.40;;
55692;SDS011;41590;53.366;5.212;2023-03-14T11:25:21;11.40;;;1.83;;
55692;SDS011;41590;53.366;5.212;2023-03-14T11:30:43;7.43;;;1.23;;
55692;SDS011;41590;53.366;5.212;2023-03-14T11:36:38;14.75;;;1.90;;
55692;SDS011;41590;53.366;5.212;2023-03-14T11:39:13;9.35;;;1.50;;
55692;SDS011;41590;53.366;5.212;2023-03-14T11:41:51;12.73;;;2.10;;
55692;SDS011;41590;53.366;5.212;2023-03-14T11:44:21;9.32;;;2.40;;
55692;SDS011;41590;53.366;5.212;2023-03-14T11:49:40;9.88;;;1.50;;
55692;SDS011;41590;53.366;5.212;2023-03-14T11:52:37;16.70;;;1.95;;
55692;SDS011;41590;53.366;5.212;2023-03-14T11:55:17;11.20;;;2.28;;
55692;SDS011;41590;53.366;5.212;2023-03-14T11:57:45;12.55;;;1.70;;
55692;SDS011;41590;53.366;5.212;2023-03-14T12:00:21;13.63;;;1.77;;
55692;SDS011;41590;53.366;5.212;2023-03-14T12:08:42;20.15;;;2.13;;
55692;SDS011;41590;53.366;5.212;2023-03-14T12:14:43;14.60;;;1.88;;
55692;SDS011;41590;53.366;5.212;2023-03-14T12:22:56;13.05;;;2.30;;
55692;SDS011;41590;53.366;5.212;2023-03-14T12:25:30;12.13;;;1.77;;
55692;SDS011;41590;53.366;5.212;2023-03-14T12:30:39;11.43;;;1.75;;
55692;SDS011;41590;53.366;5.212;2023-03-14T12:36:11;11.07;;;1.77;;
55692;SDS011;41590;53.366;5.212;2023-03-14T12:38:52;14.90;;;2.22;;
55692;SDS011;41590;53.366;5.212;2023-03-14T12:41:26;8.95;;;1.27;;
55692;SDS011;41590;53.366;5.212;2023-03-14T12:49:49;7.82;;;1.42;;
55692;SDS011;41590;53.366;5.212;2023-03-14T12:52:21;10.48;;;1.42;;
55692;SDS011;41590;53.366;5.212;2023-03-14T12:55:12;7.15;;;1.50;;
55692;SDS011;41590;53.366;5.212;2023-03-14T13:00:35;11.75;;;1.42;;
55692;SDS011;41590;53.366;5.212;2023-03-14T13:06:02;8.93;;;1.50;;
55692;SDS011;41590;53.366;5.212;2023-03-14T13:08:36;11.52;;;1.55;;
55692;SDS011;41590;53.366;5.212;2023-03-14T13:11:06;11.48;;;1.40;;
55692;SDS011;41590;53.366;5.212;2023-03-14T13:13:42;10.25;;;1.27;;
55692;SDS011;41590;53.366;5.212;2023-03-14T13:16:15;12.02;;;1.92;;
55692;SDS011;41590;53.366;5.212;2023-03-14T13:18:46;15.57;;;2.08;;
55692;SDS011;41590;53.366;5.212;2023-03-14T13:21:24;11.85;;;1.88;;
55692;SDS011;41590;53.366;5.212;2023-03-14T13:26:23;15.43;;;2.03;;
55692;SDS011;41590;53.366;5.212;2023-03-14T13:34:42;10.75;;;1.58;;
55692;SDS011;41590;53.366;5.212;2023-03-14T13:37:20;16.73;;;2.40;;
55692;SDS011;41590;53.366;5.212;2023-03-14T13:39:53;21.70;;;3.05;;
55692;SDS011;41590;53.366;5.212;2023-03-14T13:42:21;19.02;;;2.72;;
55692;SDS011;41590;53.366;5.212;2023-03-14T13:44:53;18.80;;;2.30;;
55692;SDS011;41590;53.366;5.212;2023-03-14T13:47:22;20.75;;;2.15;;
55692;SDS011;41590;53.366;5.212;2023-03-14T13:49:50;15.93;;;2.35;;
55692;SDS011;41590;53.366;5.212;2023-03-14T13:55:16;11.95;;;2.20;;
55692;SDS011;41590;53.366;5.212;2023-03-14T14:00:24;16.75;;;2.80;;
55692;SDS011;41590;53.366;5.212;2023-03-14T14:02:56;18.17;;;1.92;;
55692;SDS011;41590;53.366;5.212;2023-03-14T14:05:27;14.18;;;2.75;;
55692;SDS011;41590;53.366;5.212;2023-03-14T14:07:54;11.02;;;1.50;;
55692;SDS011;41590;53.366;5.212;2023-03-14T14:10:21;8.18;;;1.83;;
55692;SDS011;41590;53.366;5.212;2023-03-14T14:15:25;14.57;;;2.00;;
55692;SDS011;41590;53.366;5.212;2023-03-14T14:17:57;11.80;;;1.70;;
55692;SDS011;41590;53.366;5.212;2023-03-14T14:20:37;10.98;;;2.08;;
55692;SDS011;41590;53.366;5.212;2023-03-14T14:23:13;15.23;;;2.05;;
55692;SDS011;41590;53.366;5.212;2023-03-14T14:25:49;12.73;;;1.95;;
55692;SDS011;41590;53.366;5.212;2023-03-14T14:34:17;12.90;;;2.15;;
55692;SDS011;41590;53.366;5.212;2023-03-14T14:36:45;13.52;;;1.98;;
55692;SDS011;41590;53.366;5.212;2023-03-14T14:39:23;11.23;;;2.15;;
55692;SDS011;41590;53.366;5.212;2023-03-14T14:42:19;16.17;;;2.72;;
55692;SDS011;41590;53.366;5.212;2023-03-14T14:44:53;8.88;;;1.58;;
55692;SDS011;41590;53.366;5.212;2023-03-14T14:49:58;14.68;;;1.75;;
55692;SDS011;41590;53.366;5.212;2023-03-14T14:52:44;16.25;;;2.25;;
55692;SDS011;41590;53.366;5.212;2023-03-14T14:55:44;10.27;;;2.10;;
55692;SDS011;41590;53.366;5.212;2023-03-14T14:58:18;19.05;;;1.88;;
55692;SDS011;41590;53.366;5.212;2023-03-14T15:03:27;9.88;;;2.13;;
55692;SDS011;41590;53.366;5.212;2023-03-14T15:05:56;16.70;;;2.08;;
55692;SDS011;41590;53.366;5.212;2023-03-14T15:08:24;13.75;;;2.00;;
55692;SDS011;41590;53.366;5.212;2023-03-14T15:10:51;11.82;;;1.85;;
55692;SDS011;41590;53.366;5.212;2023-03-14T15:13:19;10.40;;;1.52;;
55692;SDS011;41590;53.366;5.212;2023-03-14T15:15:49;13.77;;;1.80;;
55692;SDS011;41590;53.366;5.212;2023-03-14T15:18:21;11.98;;;1.70;;
55692;SDS011;41590;53.366;5.212;2023-03-14T15:47:24;12.50;;;2.17;;
55692;SDS011;41590;53.366;5.212;2023-03-14T15:50:03;12.80;;;1.73;;
55692;SDS011;41590;53.366;5.212;2023-03-14T15:52:43;13.00;;;1.90;;
55692;SDS011;41590;53.366;5.212;2023-03-14T16:09:22;11.93;;;2.28;;
55692;SDS011;41590;53.366;5.212;2023-03-14T16:12:05;10.27;;;1.58;;
55692;SDS011;41590;53.366;5.212;2023-03-14T16:17:17;17.45;;;2.05;;
55692;SDS011;41590;53.366;5.212;2023-03-14T16:19:50;10.60;;;1.27;;
55692;SDS011;41590;53.366;5.212;2023-03-14T16:22:43;10.80;;;1.63;;
55692;SDS011;41590;53.366;5.212;2023-03-14T16:25:11;9.60;;;1.50;;
55692;SDS011;41590;53.366;5.212;2023-03-14T16:27:44;16.05;;;2.13;;
55692;SDS011;41590;53.366;5.212;2023-03-14T16:30:17;12.35;;;1.77;;
55692;SDS011;41590;53.366;5.212;2023-03-14T16:32:44;21.17;;;2.80;;
55692;SDS011;41590;53.366;5.212;2023-03-14T16:35:12;17.90;;;2.13;;
55692;SDS011;41590;53.366;5.212;2023-03-14T16:37:45;14.80;;;1.73;;
55692;SDS011;41590;53.366;5.212;2023-03-14T16:40:13;12.52;;;1.42;;
55692;SDS011;41590;53.366;5.212;2023-03-14T16:57:59;14.85;;;2.60;;
55692;SDS011;41590;53.366;5.212;2023-03-14T17:11:40;11.85;;;1.58;;
55692;SDS011;41590;53.366;5.212;2023-03-14T17:14:40;17.83;;;2.25;;
55692;SDS011;41590;53.366;5.212;2023-03-14T17:23:54;13.38;;;1.75;;
55692;SDS011;41590;53.366;5.212;2023-03-14T17:26:24;12.18;;;2.63;;
55692;SDS011;41590;53.366;5.212;2023-03-14T17:38:38;11.93;;;1.88;;
55692;SDS011;41590;53.366;5.212;2023-03-14T17:47:51;36.40;;;2.55;;
55692;SDS011;41590;53.366;5.212;2023-03-14T17:50:24;19.55;;;2.47;;
55692;SDS011;41590;53.366;5.212;2023-03-14T17:55:41;13.30;;;2.05;;
55692;SDS011;41590;53.366;5.212;2023-03-14T17:58:56;21.58;;;2.63;;
55692;SDS011;41590;53.366;5.212;2023-03-14T18:11:57;34.20;;;3.40;;
55692;SDS011;41590;53.366;5.212;2023-03-14T18:14:37;18.45;;;1.90;;
55692;SDS011;41590;53.366;5.212;2023-03-14T18:20:40;20.65;;;2.85;;
55692;SDS011;41590;53.366;5.212;2023-03-14T18:23:22;18.92;;;2.30;;
55692;SDS011;41590;53.366;5.212;2023-03-14T18:25:58;13.93;;;2.25;;
55692;SDS011;41590;53.366;5.212;2023-03-14T18:28:25;20.92;;;2.40;;
55692;SDS011;41590;53.366;5.212;2023-03-14T18:31:01;19.45;;;1.90;;
55692;SDS011;41590;53.366;5.212;2023-03-14T18:33:40;15.25;;;1.77;;
55692;SDS011;41590;53.366;5.212;2023-03-14T18:38:59;24.10;;;2.30;;
55692;SDS011;41590;53.366;5.212;2023-03-14T18:47:11;18.00;;;2.40;;
55692;SDS011;41590;53.366;5.212;2023-03-14T18:52:10;12.57;;;2.63;;
55692;SDS011;41590;53.366;5.212;2023-03-14T18:54:39;11.77;;;1.85;;
55692;SDS011;41590;53.366;5.212;2023-03-14T18:57:09;19.30;;;1.90;;
55692;SDS011;41590;53.366;5.212;2023-03-14T18:59:37;16.70;;;2.28;;
55692;SDS011;41590;53.366;5.212;2023-03-14T19:02:12;15.43;;;1.50;;
55692;SDS011;41590;53.366;5.212;2023-03-14T19:04:41;17.60;;;2.88;;
55692;SDS011;41590;53.366;5.212;2023-03-14T19:07:15;15.02;;;2.30;;
55692;SDS011;41590;53.366;5.212;2023-03-14T19:12:37;10.65;;;1.50;;
55692;SDS011;41590;53.366;5.212;2023-03-14T19:15:13;16.27;;;2.00;;
55692;SDS011;41590;53.366;5.212;2023-03-14T19:17:51;14.70;;;2.30;;
55692;SDS011;41590;53.366;5.212;2023-03-14T19:20:28;8.82;;;1.70;;
55692;SDS011;41590;53.366;5.212;2023-03-14T19:23:03;12.93;;;1.75;;
55692;SDS011;41590;53.366;5.212;2023-03-14T19:25:30;21.83;;;2.15;;
55692;SDS011;41590;53.366;5.212;2023-03-14T19:28:01;12.15;;;1.17;;
55692;SDS011;41590;53.366;5.212;2023-03-14T19:30:29;7.65;;;1.35;;
55692;SDS011;41590;53.366;5.212;2023-03-14T19:35:28;13.25;;;1.67;;
55692;SDS011;41590;53.366;5.212;2023-03-14T19:37:55;13.35;;;2.05;;
55692;SDS011;41590;53.366;5.212;2023-03-14T19:40:32;15.77;;;1.88;;
55692;SDS011;41590;53.366;5.212;2023-03-14T19:43:05;20.42;;;1.65;;
55692;SDS011;41590;53.366;5.212;2023-03-14T19:55:19;16.60;;;2.55;;
55692;SDS011;41590;53.366;5.212;2023-03-14T19:57:58;15.88;;;1.80;;
55692;SDS011;41590;53.366;5.212;2023-03-14T20:00:28;17.55;;;2.35;;
55692;SDS011;41590;53.366;5.212;2023-03-14T20:05:29;14.98;;;2.78;;
55692;SDS011;41590;53.366;5.212;2023-03-14T20:08:11;18.63;;;2.10;;
55692;SDS011;41590;53.366;5.212;2023-03-14T20:13:47;18.25;;;2.90;;
55692;SDS011;41590;53.366;5.212;2023-03-14T20:18:46;15.90;;;1.92;;
55692;SDS011;41590;53.366;5.212;2023-03-14T20:21:18;16.73;;;1.85;;
55692;SDS011;41590;53.366;5.212;2023-03-14T20:26:42;13.38;;;1.80;;
55692;SDS011;41590;53.366;5.212;2023-03-14T20:29:12;15.35;;;1.98;;
55692;SDS011;41590;53.366;5.212;2023-03-14T20:34:49;10.70;;;2.37;;
55692;SDS011;41590;53.366;5.212;2023-03-14T20:40:23;23.00;;;2.40;;
55692;SDS011;41590;53.366;5.212;2023-03-14T20:42:56;18.52;;;2.88;;
55692;SDS011;41590;53.366;5.212;2023-03-14T20:45:38;17.77;;;2.25;;
55692;SDS011;41590;53.366;5.212;2023-03-14T20:48:16;10.45;;;1.35;;
55692;SDS011;41590;53.366;5.212;2023-03-14T20:50:42;10.85;;;1.33;;
55692;SDS011;41590;53.366;5.212;2023-03-14T20:53:26;11.40;;;1.38;;
55692;SDS011;41590;53.366;5.212;2023-03-14T20:55:58;13.27;;;1.73;;
55692;SDS011;41590;53.366;5.212;2023-03-14T20:58:33;11.63;;;1.87;;
55692;SDS011;41590;53.366;5.212;2023-03-14T21:00:59;13.23;;;1.48;;
55692;SDS011;41590;53.366;5.212;2023-03-14T21:06:53;17.20;;;2.17;;
55692;SDS011;41590;53.366;5.212;2023-03-14T21:09:28;7.75;;;1.27;;
55692;SDS011;41590;53.366;5.212;2023-03-14T21:12:09;5.70;;;1.20;;
55692;SDS011;41590;53.366;5.212;2023-03-14T21:15:08;11.15;;;1.20;;
55692;SDS011;41590;53.366;5.212;2023-03-14T21:17:56;14.15;;;1.67;;
55692;SDS011;41590;53.366;5.212;2023-03-14T21:20:28;10.63;;;1.42;;
55692;SDS011;41590;53.366;5.212;2023-03-14T21:25:27;16.00;;;2.00;;
55692;SDS011;41590;53.366;5.212;2023-03-14T21:27:59;18.85;;;1.95;;
55692;SDS011;41590;53.366;5.212;2023-03-14T21:30:37;16.05;;;2.15;;
55692;SDS011;41590;53.366;5.212;2023-03-14T21:33:03;25.27;;;2.35;;
55692;SDS011;41590;53.366;5.212;2023-03-14T21:35:44;14.63;;;1.60;;
55692;SDS011;41590;53.366;5.212;2023-03-14T21:38:10;15.07;;;1.70;;
55692;SDS011;41590;53.366;5.212;2023-03-14T21:40:39;12.48;;;1.63;;
55692;SDS011;41590;53.366;5.212;2023-03-14T21:43:13;12.32;;;2.05;;
55692;SDS011;41590;53.366;5.212;2023-03-14T21:48:51;12.68;;;1.73;;
55692;SDS011;41590;53.366;5.212;2023-03-14T21:51:33;17.38;;;2.60;;
55692;SDS011;41590;53.366;5.212;2023-03-14T22:02:43;11.93;;;1.63;;
55692;SDS011;41590;53.366;5.212;2023-03-14T22:14:23;10.10;;;1.48;;
55692;SDS011;41590;53.366;5.212;2023-03-14T22:17:04;11.15;;;1.55;;
55692;SDS011;41590;53.366;5.212;2023-03-14T22:19:31;7.97;;;1.20;;
55692;SDS011;41590;53.366;5.212;2023-03-14T22:22:14;12.45;;;1.45;;
55692;SDS011;41590;53.366;5.212;2023-03-14T22:24:58;9.80;;;1.70;;
55692;SDS011;41590;53.366;5.212;2023-03-14T22:27:30;13.20;;;1.55;;
55692;SDS011;41590;53.366;5.212;2023-03-14T22:30:10;7.00;;;1.27;;
55692;SDS011;41590;53.366;5.212;2023-03-14T22:35:34;17.92;;;1.67;;
55692;SDS011;41590;53.366;5.212;2023-03-14T22:38:01;13.93;;;1.27;;
55692;SDS011;41590;53.366;5.212;2023-03-14T22:40:29;10.23;;;1.50;;
55692;SDS011;41590;53.366;5.212;2023-03-14T22:42:57;11.43;;;1.40;;
55692;SDS011;41590;53.366;5.212;2023-03-14T22:45:39;14.18;;;1.83;;
55692;SDS011;41590;53.366;5.212;2023-03-14T22:48:17;19.67;;;1.70;;
55692;SDS011;41590;53.366;5.212;2023-03-14T22:50:58;8.27;;;1.25;;